createdAt,value
2019-02-18T00:02:06.067Z,13.77
2019-02-18T00:04:34.348Z,13.83
2019-02-18T00:07:02.660Z,14.40
2019-02-18T00:09:31.046Z,14.13
2019-02-18T00:11:59.404Z,13.93
2019-02-18T00:14:27.733Z,14.17
2019-02-18T00:16:56.085Z,13.83
2019-02-18T00:19:24.400Z,14.63
2019-02-18T00:21:52.678Z,15.47
2019-02-18T00:24:20.983Z,15.60
2019-02-18T00:26:49.268Z,14.60
2019-02-18T00:29:17.648Z,14.63
2019-02-18T00:31:45.956Z,14.10
2019-02-18T00:34:14.313Z,14.07
2019-02-18T00:36:42.621Z,14.80
2019-02-18T00:39:10.902Z,15.33
2019-02-18T00:41:39.213Z,15.20
2019-02-18T00:44:07.490Z,16.13
2019-02-18T00:46:35.804Z,14.03
2019-02-18T00:49:04.158Z,14.67
2019-02-18T00:51:32.470Z,13.90
2019-02-18T00:54:00.744Z,13.90
2019-02-18T00:56:29.046Z,14.53
2019-02-18T00:58:57.359Z,13.83
2019-02-18T01:01:25.635Z,14.00
2019-02-18T01:03:53.945Z,15.20
2019-02-18T01:06:22.220Z,14.33
2019-02-18T01:08:50.527Z,14.60
2019-02-18T01:11:18.836Z,14.33
2019-02-18T01:13:47.122Z,15.10
2019-02-18T01:16:15.436Z,14.07
2019-02-18T01:18:43.716Z,13.87
2019-02-18T01:21:12.021Z,15.23
2019-02-18T01:23:40.331Z,14.07
2019-02-18T01:26:08.603Z,12.67
2019-02-18T01:28:36.907Z,13.80
2019-02-18T01:31:05.262Z,13.30
2019-02-18T01:33:33.648Z,13.43
2019-02-18T01:36:01.934Z,13.80
2019-02-18T01:38:30.244Z,14.10
2019-02-18T01:40:58.556Z,13.07
2019-02-18T01:43:26.840Z,13.73
2019-02-18T01:45:55.224Z,14.27
2019-02-18T01:48:23.509Z,12.90
2019-02-18T01:50:51.831Z,13.90
2019-02-18T01:53:20.138Z,13.57
2019-02-18T01:55:48.447Z,13.17
2019-02-18T01:58:16.732Z,13.30
2019-02-18T02:00:45.040Z,13.43
2019-02-18T02:03:13.317Z,13.67
2019-02-18T02:05:41.700Z,14.50
2019-02-18T02:08:10.011Z,13.47
2019-02-18T02:10:38.389Z,15.33
2019-02-18T02:13:28.584Z,13.50
2019-02-18T02:15:57.510Z,13.17
2019-02-18T02:18:25.778Z,13.53
2019-02-18T02:20:54.091Z,12.90
2019-02-18T02:23:22.472Z,13.53
2019-02-18T02:25:50.776Z,13.20
2019-02-18T02:28:19.693Z,13.47
2019-02-18T02:30:48.127Z,12.93
2019-02-18T02:33:16.402Z,12.00
2019-02-18T02:35:44.716Z,12.20
2019-02-18T02:38:13.064Z,11.97
2019-02-18T02:40:41.457Z,12.00
2019-02-18T02:43:09.810Z,12.87
2019-02-18T02:45:38.081Z,13.50
2019-02-18T02:48:06.384Z,13.37
2019-02-18T02:50:34.655Z,13.83
2019-02-18T02:53:02.966Z,14.27
2019-02-18T02:55:31.357Z,14.87
2019-02-18T02:57:59.708Z,14.70
2019-02-18T03:00:28.015Z,15.10
2019-02-18T03:02:56.327Z,15.13
2019-02-18T03:05:24.611Z,14.87
2019-02-18T03:07:53.018Z,15.03
2019-02-18T03:10:21.349Z,15.30
2019-02-18T03:12:49.735Z,15.07
2019-02-18T03:15:18.416Z,14.97
2019-02-18T03:17:46.691Z,14.40
2019-02-18T03:20:15.014Z,16.10
2019-02-18T03:22:43.401Z,15.37
2019-02-18T03:25:21.909Z,14.10
2019-02-18T03:28:02.492Z,14.87
2019-02-18T03:30:40.127Z,15.23
2019-02-18T03:33:14.295Z,16.13
2019-02-18T03:35:42.656Z,16.67
2019-02-18T03:38:10.965Z,16.27
2019-02-18T03:40:39.348Z,18.90
2019-02-18T03:43:07.629Z,16.27
2019-02-18T03:45:35.941Z,16.77
2019-02-18T03:48:04.271Z,16.53
2019-02-18T03:50:32.714Z,16.77
2019-02-18T03:53:01.023Z,16.10
2019-02-18T03:55:29.346Z,16.43
2019-02-18T03:57:57.705Z,16.70
2019-02-18T04:00:26.057Z,16.73
2019-02-18T04:02:54.373Z,16.63
2019-02-18T04:05:22.649Z,17.43
2019-02-18T04:07:50.956Z,16.63
2019-02-18T04:10:19.262Z,17.20
2019-02-18T04:12:47.583Z,16.60
2019-02-18T04:15:17.285Z,17.43
2019-02-18T04:17:45.638Z,18.93
2019-02-18T04:20:13.952Z,17.80
2019-02-18T04:22:42.333Z,17.47
2019-02-18T04:25:10.715Z,17.90
2019-02-18T04:27:38.999Z,19.23
2019-02-18T04:30:10.032Z,18.33
2019-02-18T04:32:38.298Z,16.33
2019-02-18T04:35:08.157Z,15.83
2019-02-18T04:37:36.820Z,15.70
2019-02-18T04:40:08.221Z,16.50
2019-02-18T04:42:36.675Z,15.93
2019-02-18T04:45:07.764Z,15.23
2019-02-18T04:47:36.071Z,15.73
2019-02-18T04:50:05.764Z,15.13
2019-02-18T04:52:34.148Z,16.30
2019-02-18T04:55:02.532Z,16.33
2019-02-18T04:57:31.420Z,16.13
2019-02-18T05:00:00.344Z,16.27
2019-02-18T05:02:28.779Z,15.90
2019-02-18T05:04:57.090Z,16.37
2019-02-18T05:07:25.401Z,16.43
2019-02-18T05:09:53.807Z,15.40
2019-02-18T05:12:22.171Z,15.97
2019-02-18T05:14:50.518Z,16.37
2019-02-18T05:17:18.809Z,17.43
2019-02-18T05:19:47.187Z,15.50
2019-02-18T05:22:15.576Z,16.63
2019-02-18T05:24:44.007Z,16.33
2019-02-18T05:27:12.406Z,15.43
2019-02-18T05:29:40.745Z,16.33
2019-02-18T05:32:09.056Z,16.57
2019-02-18T05:34:37.372Z,16.07
2019-02-18T05:37:05.773Z,16.13
2019-02-18T05:39:34.135Z,17.03
2019-02-18T05:42:02.414Z,16.27
2019-02-18T05:44:30.794Z,16.20
2019-02-18T05:46:59.144Z,16.40
2019-02-18T05:49:27.458Z,16.43
2019-02-18T05:51:55.814Z,17.77
2019-02-18T05:54:24.216Z,17.30
2019-02-18T05:56:52.561Z,16.83
2019-02-18T05:59:20.871Z,16.20
2019-02-18T06:01:49.164Z,16.97
2019-02-18T06:04:17.548Z,16.83
2019-02-18T06:06:45.901Z,15.70
2019-02-18T06:09:14.291Z,15.50
2019-02-18T06:11:42.612Z,17.00
2019-02-18T06:14:10.885Z,15.70
2019-02-18T06:16:39.228Z,16.77
2019-02-18T06:19:07.590Z,16.20
2019-02-18T06:21:35.983Z,16.57
2019-02-18T06:24:04.344Z,17.03
2019-02-18T06:26:32.740Z,16.40
2019-02-18T06:29:01.025Z,16.87
2019-02-18T06:31:29.433Z,17.00
2019-02-18T06:33:57.712Z,17.17
2019-02-18T06:36:26.063Z,18.30
2019-02-18T06:38:54.456Z,17.87
2019-02-18T06:41:22.812Z,17.17
2019-02-18T06:43:51.127Z,16.37
2019-02-18T06:46:24.010Z,17.17
2019-02-18T06:48:54.219Z,17.37
2019-02-18T06:51:22.558Z,17.27
2019-02-18T06:53:50.861Z,17.57
2019-02-18T06:56:20.795Z,17.90
2019-02-18T06:58:50.831Z,17.93
2019-02-18T07:01:23.634Z,17.50
2019-02-18T07:04:02.688Z,17.83
2019-02-18T07:06:35.450Z,16.83
2019-02-18T07:09:08.635Z,16.73
2019-02-18T07:11:38.781Z,16.60
2019-02-18T07:14:07.139Z,16.67
2019-02-18T07:16:35.447Z,16.47
2019-02-18T07:19:03.781Z,15.57
2019-02-18T07:21:32.132Z,15.13
2019-02-18T07:24:00.425Z,15.87
2019-02-18T07:26:28.740Z,15.43
2019-02-18T07:28:57.095Z,15.70
2019-02-18T07:31:25.451Z,16.20
2019-02-18T07:33:53.834Z,15.43
2019-02-18T07:36:22.200Z,14.60
2019-02-18T07:38:50.503Z,14.90
2019-02-18T07:41:18.782Z,15.77
2019-02-18T07:43:47.173Z,17.00
2019-02-18T07:46:15.504Z,16.27
2019-02-18T07:48:43.789Z,14.80
2019-02-18T07:51:12.143Z,16.07
2019-02-18T07:53:41.380Z,15.03
2019-02-18T07:56:09.707Z,15.43
2019-02-18T07:58:38.024Z,15.27
2019-02-18T08:01:06.337Z,14.33
2019-02-18T08:03:34.655Z,15.33
2019-02-18T08:06:02.964Z,13.77
2019-02-18T08:08:31.276Z,14.37
2019-02-18T08:10:59.852Z,14.33
2019-02-18T08:13:28.308Z,14.27
2019-02-18T08:15:56.614Z,14.97
2019-02-18T08:18:24.968Z,14.00
2019-02-18T08:20:53.274Z,15.30
2019-02-18T08:23:21.656Z,15.77
2019-02-18T08:25:49.941Z,14.53
2019-02-18T08:28:18.328Z,15.87
2019-02-18T08:30:46.639Z,14.83
2019-02-18T08:33:15.011Z,15.53
2019-02-18T08:35:43.718Z,15.13
2019-02-18T08:38:12.060Z,15.97
2019-02-18T08:40:40.373Z,14.90
2019-02-18T08:43:08.732Z,15.53
2019-02-18T08:45:37.115Z,14.77
2019-02-18T08:48:05.391Z,16.13
2019-02-18T08:50:33.699Z,15.50
2019-02-18T08:53:02.055Z,15.53
2019-02-18T08:55:30.363Z,15.60
2019-02-18T08:57:58.680Z,14.80
2019-02-18T09:00:26.985Z,15.23
2019-02-18T09:02:55.291Z,15.03
2019-02-18T09:05:23.668Z,15.93
2019-02-18T09:07:52.069Z,15.37
2019-02-18T09:10:20.368Z,16.77
2019-02-18T09:12:49.123Z,15.77
2019-02-18T09:15:17.408Z,15.77
2019-02-18T09:17:47.320Z,16.03
2019-02-18T09:20:15.632Z,15.83
2019-02-18T09:22:54.333Z,15.67
2019-02-18T09:25:27.095Z,15.80
2019-02-18T09:27:55.398Z,16.10
2019-02-18T09:30:25.396Z,15.37
2019-02-18T09:32:53.768Z,15.73
2019-02-18T09:35:22.308Z,17.07
2019-02-18T09:37:50.608Z,16.27
2019-02-18T09:40:18.995Z,16.60
2019-02-18T09:42:47.418Z,16.27
2019-02-18T09:45:15.728Z,16.67
2019-02-18T09:47:44.092Z,15.33
2019-02-18T09:50:12.476Z,16.20
2019-02-18T09:52:40.831Z,17.00
2019-02-18T09:55:10.165Z,17.83
2019-02-18T09:57:38.523Z,16.63
2019-02-18T10:00:09.481Z,16.93
2019-02-18T10:02:37.864Z,14.80
2019-02-18T10:05:07.327Z,16.93
2019-02-18T10:07:35.648Z,15.83
2019-02-18T10:10:05.908Z,15.67
2019-02-18T10:12:34.308Z,15.43
2019-02-18T10:15:02.594Z,15.60
2019-02-18T10:17:30.932Z,15.00
2019-02-18T10:19:59.216Z,15.63
2019-02-18T10:22:27.504Z,14.37
2019-02-18T10:24:55.826Z,12.90
2019-02-18T10:27:24.144Z,12.67
2019-02-18T10:29:52.539Z,14.77
2019-02-18T10:32:20.919Z,14.07
2019-02-18T10:34:49.239Z,15.10
2019-02-18T10:37:17.544Z,14.43
2019-02-18T10:39:45.899Z,13.73
2019-02-18T10:42:14.291Z,13.90
2019-02-18T10:44:42.585Z,13.63
2019-02-18T10:47:10.977Z,14.27
2019-02-18T10:49:39.449Z,14.10
2019-02-18T10:52:07.863Z,14.40
2019-02-18T10:54:36.211Z,13.10
2019-02-18T10:57:04.608Z,12.80
2019-02-18T10:59:32.991Z,13.37
2019-02-18T11:02:01.375Z,14.17
2019-02-18T11:04:30.075Z,13.70
2019-02-18T11:06:58.424Z,12.87
2019-02-18T11:09:26.811Z,13.43
2019-02-18T11:11:55.096Z,13.07
2019-02-18T11:14:23.390Z,14.07
2019-02-18T11:16:51.783Z,14.47
2019-02-18T11:19:20.137Z,13.10
2019-02-18T11:21:48.524Z,14.00
2019-02-18T11:24:16.884Z,14.67
2019-02-18T11:26:45.255Z,13.97
2019-02-18T11:29:13.836Z,14.10
2019-02-18T11:31:42.239Z,14.40
2019-02-18T11:34:10.586Z,13.83
2019-02-18T11:36:38.984Z,14.80
2019-02-18T11:39:10.384Z,13.70
2019-02-18T11:41:38.730Z,14.00
2019-02-18T11:44:07.083Z,13.13
2019-02-18T11:46:35.475Z,12.50
2019-02-18T11:49:03.768Z,13.03
2019-02-18T11:51:32.357Z,12.53
2019-02-18T11:54:00.711Z,12.87
2019-02-18T11:56:29.139Z,13.07
2019-02-18T11:58:57.419Z,12.77
2019-02-18T12:01:28.273Z,12.40
2019-02-18T12:03:55.885Z,13.30
2019-02-18T12:06:24.322Z,12.20
2019-02-18T12:08:52.600Z,12.63
2019-02-18T12:11:21.013Z,12.77
2019-02-18T12:13:49.813Z,12.77
2019-02-18T12:16:18.186Z,12.80
2019-02-18T12:18:46.552Z,12.40
2019-02-18T12:21:14.933Z,11.50
2019-02-18T12:23:43.348Z,12.13
2019-02-18T12:26:11.711Z,13.13
2019-02-18T12:28:40.106Z,12.93
2019-02-18T12:31:08.782Z,12.78
2019-02-18T12:33:37.203Z,12.50
2019-02-18T12:36:05.577Z,13.03
2019-02-18T12:38:33.947Z,13.07
2019-02-18T12:41:03.968Z,12.60
2019-02-18T12:43:32.383Z,13.27
2019-02-18T12:46:01.169Z,12.90
2019-02-18T12:48:29.530Z,12.53
2019-02-18T12:50:57.888Z,13.50
2019-02-18T12:53:26.276Z,13.20
2019-02-18T12:55:56.935Z,12.20
2019-02-18T12:58:24.999Z,12.90
2019-02-18T13:00:53.358Z,12.50
2019-02-18T13:03:22.046Z,14.25
2019-02-18T13:05:50.413Z,13.20
2019-02-18T13:08:18.797Z,13.38
2019-02-18T13:10:47.186Z,13.07
2019-02-18T13:13:15.537Z,13.13
2019-02-18T13:15:43.927Z,11.63
2019-02-18T13:18:12.288Z,12.90
2019-02-18T13:20:40.683Z,12.15
2019-02-18T13:23:09.462Z,12.65
2019-02-18T13:25:37.859Z,12.47
2019-02-18T13:28:08.590Z,13.25
2019-02-18T13:30:36.262Z,11.88
2019-02-18T13:33:04.655Z,12.45
2019-02-18T13:35:33.048Z,12.53
2019-02-18T13:38:01.558Z,12.75
2019-02-18T13:40:30.084Z,12.80
2019-02-18T13:42:58.481Z,12.00
2019-02-18T13:45:26.835Z,12.37
2019-02-18T13:47:55.239Z,12.55
2019-02-18T13:50:23.641Z,12.40
2019-02-18T13:52:51.999Z,12.58
2019-02-18T13:55:20.787Z,12.75
2019-02-18T13:57:49.158Z,12.65
2019-02-18T14:00:20.463Z,13.62
2019-02-18T14:02:49.945Z,13.18
2019-02-18T14:05:20.036Z,14.30
2019-02-18T14:07:48.480Z,14.40
2019-02-18T14:10:17.218Z,13.72
2019-02-18T14:12:45.571Z,13.05
2019-02-18T14:15:14.465Z,13.43
2019-02-18T14:17:42.863Z,13.10
2019-02-18T14:20:14.163Z,12.10
2019-02-18T14:22:42.656Z,11.63
2019-02-18T14:25:12.385Z,12.53
2019-02-18T14:27:40.790Z,12.37
2019-02-18T14:30:12.393Z,11.53
2019-02-18T14:32:40.755Z,12.30
2019-02-18T14:35:09.183Z,12.35
2019-02-18T14:37:37.575Z,12.25
2019-02-18T14:40:07.348Z,12.23
2019-02-18T14:42:35.749Z,12.13
2019-02-18T14:45:04.996Z,12.75
2019-02-18T14:47:33.352Z,12.60
2019-02-18T14:50:01.739Z,12.18
2019-02-18T14:52:30.512Z,12.80
2019-02-18T14:54:58.869Z,12.82
2019-02-18T14:57:27.239Z,12.28
2019-02-18T14:59:55.631Z,12.43
2019-02-18T15:02:24.020Z,11.35
2019-02-18T15:04:59.696Z,11.45
2019-02-18T15:07:28.060Z,11.45
2019-02-18T15:09:56.464Z,11.38
2019-02-18T15:12:32.728Z,11.12
2019-02-18T15:14:54.945Z,11.68
2019-02-18T15:17:23.308Z,11.22
2019-02-18T15:19:51.699Z,11.30
2019-02-18T15:22:20.121Z,10.32
2019-02-18T15:24:48.505Z,11.12
2019-02-18T15:27:17.172Z,11.50
2019-02-18T15:29:45.530Z,12.60
2019-02-18T15:32:13.924Z,12.63
2019-02-18T15:34:42.321Z,13.78
2019-02-18T15:37:10.740Z,13.75
2019-02-18T15:39:39.047Z,12.45
2019-02-18T15:42:07.607Z,12.30
2019-02-18T15:44:36.020Z,13.00
2019-02-18T15:47:04.417Z,12.55
2019-02-18T15:49:32.799Z,13.30
2019-02-18T15:52:01.190Z,12.43
2019-02-18T15:54:29.580Z,13.08
2019-02-18T15:56:57.976Z,12.05
2019-02-18T15:59:26.376Z,13.08
2019-02-18T16:01:54.743Z,12.23
2019-02-18T16:04:23.131Z,12.47
2019-02-18T16:06:51.495Z,12.50
2019-02-18T16:09:19.825Z,12.50
2019-02-18T16:11:48.206Z,12.37
2019-02-18T16:14:17.001Z,12.73
2019-02-18T16:16:45.382Z,14.00
2019-02-18T16:19:13.735Z,13.80
2019-02-18T16:21:42.122Z,14.17
2019-02-18T16:24:19.671Z,13.63
2019-02-18T16:26:40.555Z,13.90
2019-02-18T16:29:08.938Z,13.87
2019-02-18T16:31:37.318Z,14.07
2019-02-18T16:34:06.008Z,13.57
2019-02-18T16:36:34.367Z,14.37
2019-02-18T16:39:03.235Z,15.23
2019-02-18T16:41:31.918Z,14.33
2019-02-18T16:44:00.259Z,14.90
2019-02-18T16:46:31.480Z,15.03
2019-02-18T16:49:00.128Z,15.70
2019-02-18T16:51:28.499Z,14.23
2019-02-18T16:53:57.505Z,15.27
2019-02-18T16:56:25.859Z,14.10
2019-02-18T16:58:54.225Z,14.27
2019-02-18T17:01:22.625Z,13.37
2019-02-18T17:03:50.975Z,14.93
2019-02-18T17:06:19.335Z,16.47
2019-02-18T17:08:47.726Z,14.47
2019-02-18T17:11:16.115Z,15.07
2019-02-18T17:13:44.484Z,15.17
2019-02-18T17:16:13.372Z,15.33
2019-02-18T17:18:41.736Z,15.77
2019-02-18T17:21:10.121Z,15.67
2019-02-18T17:23:38.524Z,14.87
2019-02-18T17:26:06.882Z,15.17
2019-02-18T17:28:35.248Z,14.57
2019-02-18T17:31:03.649Z,14.67
2019-02-18T17:33:32.413Z,14.10
2019-02-18T17:36:00.806Z,15.43
2019-02-18T17:38:29.180Z,14.70
2019-02-18T17:40:57.538Z,15.03
2019-02-18T17:43:25.939Z,14.80
2019-02-18T17:45:54.296Z,15.67
2019-02-18T17:48:22.651Z,15.13
2019-02-18T17:50:51.039Z,15.10
2019-02-18T17:53:19.410Z,16.30
2019-02-18T17:55:47.772Z,15.40
2019-02-18T17:58:16.162Z,15.63
2019-02-18T18:00:46.154Z,16.00
2019-02-18T18:03:14.628Z,15.70
2019-02-18T18:05:44.629Z,16.93
2019-02-18T18:08:13.077Z,15.93
2019-02-18T18:10:41.466Z,16.20
2019-02-18T18:13:09.823Z,16.70
2019-02-18T18:15:38.223Z,15.87
2019-02-18T18:18:06.634Z,17.27
2019-02-18T18:20:35.291Z,16.97
2019-02-18T18:23:03.679Z,16.97
2019-02-18T18:25:32.076Z,17.00
2019-02-18T18:28:00.484Z,17.97
2019-02-18T18:30:28.879Z,18.40
2019-02-18T18:32:57.264Z,18.33
2019-02-18T18:35:25.628Z,16.50
2019-02-18T18:37:54.324Z,16.10
2019-02-18T18:40:22.689Z,16.37
2019-02-18T18:42:51.079Z,16.13
2019-02-18T18:45:19.983Z,16.13
2019-02-18T18:47:48.378Z,16.30
2019-02-18T18:50:23.274Z,15.57
2019-02-18T18:52:51.664Z,15.60
2019-02-18T18:55:20.070Z,16.33
2019-02-18T18:57:48.420Z,17.03
2019-02-18T19:00:23.763Z,16.37
2019-02-18T19:02:52.061Z,16.90
2019-02-18T19:05:20.746Z,16.43
2019-02-18T19:07:49.038Z,15.87
2019-02-18T19:10:17.445Z,15.90
2019-02-18T19:12:45.800Z,16.03
2019-02-18T19:15:20.016Z,14.57
2019-02-18T19:17:48.408Z,13.90
2019-02-18T19:20:16.807Z,14.00
2019-02-18T19:22:45.336Z,14.33
2019-02-18T19:25:13.691Z,14.27
2019-02-18T19:27:42.077Z,14.67
2019-02-18T19:30:13.692Z,14.23
2019-02-18T19:32:42.003Z,13.03
2019-02-18T19:35:10.365Z,13.63
2019-02-18T19:37:38.683Z,15.20
2019-02-18T19:40:10.046Z,15.60
2019-02-18T19:42:38.399Z,14.47
2019-02-18T19:45:09.959Z,14.70
2019-02-18T19:47:38.511Z,13.90
2019-02-18T19:50:07.740Z,14.00
2019-02-18T19:52:36.115Z,13.90
2019-02-18T19:55:07.630Z,14.30
2019-02-18T19:57:35.972Z,14.40
2019-02-18T20:00:06.612Z,15.63
2019-02-18T20:02:42.321Z,14.87
2019-02-18T20:05:12.481Z,14.57
2019-02-18T20:07:40.917Z,15.27
2019-02-18T20:10:11.118Z,14.93
2019-02-18T20:12:39.621Z,14.20
2019-02-18T20:15:13.117Z,12.47
2019-02-18T20:17:41.540Z,12.97
2019-02-18T20:20:17.128Z,12.43
2019-02-18T20:22:45.900Z,12.00
2019-02-18T20:25:14.287Z,11.20
2019-02-18T20:27:42.661Z,10.30
2019-02-18T20:30:13.362Z,10.10
2019-02-18T20:32:41.708Z,10.03
2019-02-18T20:35:10.942Z,11.57
2019-02-18T20:37:39.307Z,12.33
2019-02-18T20:40:09.737Z,11.80
2019-02-18T20:42:38.522Z,11.53
2019-02-18T20:45:11.810Z,12.50
2019-02-18T20:47:40.202Z,12.77
2019-02-18T20:50:10.696Z,12.40
2019-02-18T20:52:40.914Z,11.13
2019-02-18T20:55:13.746Z,10.60
2019-02-18T20:57:42.158Z,10.57
2019-02-18T21:00:19.395Z,10.27
2019-02-18T21:02:47.760Z,11.17
2019-02-18T21:05:16.144Z,10.13
2019-02-18T21:07:44.535Z,13.40
2019-02-18T21:10:18.659Z,11.57
2019-02-18T21:12:49.974Z,12.27
2019-02-18T21:15:18.378Z,13.60
2019-02-18T21:17:48.539Z,11.67
2019-02-18T21:20:16.901Z,11.47
2019-02-18T21:22:49.011Z,12.03
2019-02-18T21:25:17.412Z,10.83
2019-02-18T21:27:46.881Z,10.63
2019-02-18T21:30:18.335Z,10.07
2019-02-18T21:32:46.790Z,9.13
2019-02-18T21:35:18.718Z,7.30
2019-02-18T21:37:47.024Z,8.67
2019-02-18T21:40:15.407Z,7.73
2019-02-18T21:42:45.433Z,7.90
2019-02-18T21:45:17.036Z,6.50
2019-02-18T21:47:45.416Z,7.40
2019-02-18T21:50:13.860Z,7.77
2019-02-18T21:52:42.269Z,6.93
2019-02-18T21:55:11.881Z,6.90
2019-02-18T21:57:40.238Z,6.40
2019-02-18T22:00:20.464Z,6.20
2019-02-18T22:02:50.539Z,6.83
2019-02-18T22:05:20.818Z,8.73
2019-02-18T22:07:50.456Z,7.97
2019-02-18T22:10:18.878Z,5.90
2019-02-18T22:12:47.277Z,7.27
2019-02-18T22:15:15.682Z,6.10
2019-02-18T22:17:44.181Z,7.20
2019-02-18T22:20:13.896Z,6.93
2019-02-18T22:22:44.065Z,6.43
2019-02-18T22:25:14.522Z,6.87
2019-02-18T22:27:44.970Z,6.90
2019-02-18T22:30:15.436Z,7.03
2019-02-18T22:32:43.815Z,7.03
2019-02-18T22:35:12.219Z,7.03
2019-02-18T22:37:40.568Z,6.70
2019-02-18T22:40:12.841Z,6.17
2019-02-18T22:42:41.187Z,6.50
2019-02-18T22:45:10.924Z,6.57
2019-02-18T22:47:39.278Z,6.90
2019-02-18T22:50:09.779Z,6.83
2019-02-18T22:52:38.162Z,7.67
2019-02-18T22:55:07.295Z,7.67
2019-02-18T22:57:35.640Z,6.73
2019-02-18T23:00:06.265Z,7.67
2019-02-18T23:02:34.645Z,7.03
2019-02-18T23:05:03.007Z,6.70
2019-02-18T23:07:31.701Z,7.50
2019-02-18T23:10:00.481Z,7.27
2019-02-18T23:12:28.798Z,7.23
2019-02-18T23:14:57.154Z,7.23
2019-02-18T23:17:25.543Z,7.57
2019-02-18T23:19:53.888Z,7.20
2019-02-18T23:22:22.202Z,7.13
2019-02-18T23:24:50.905Z,7.60
2019-02-18T23:27:19.250Z,7.70
2019-02-18T23:29:47.632Z,7.90
2019-02-18T23:32:16.022Z,7.60
2019-02-18T23:34:44.416Z,8.03
2019-02-18T23:37:12.760Z,7.00
2019-02-18T23:39:41.103Z,8.13
2019-02-18T23:42:09.454Z,7.50
2019-02-18T23:44:37.845Z,8.43
2019-02-18T23:47:06.128Z,8.27
2019-02-18T23:49:34.452Z,8.17
2019-02-18T23:52:02.824Z,8.13
2019-02-18T23:54:31.107Z,8.27
2019-02-18T23:56:59.431Z,7.57
2019-02-18T23:59:27.709Z,8.80
